sensor_id;sensor_type;location;lat;lon;timestamp;temperature;humidity
21123;DHT22;10719;48.130;11.630;2023-04-25T00:00:44;7.20;99.90
21123;DHT22;10719;48.130;11.630;2023-04-25T00:03:09;7.30;99.90
21123;DHT22;10719;48.130;11.630;2023-04-25T00:05:35;7.20;99.90
21123;DHT22;10719;48.130;11.630;2023-04-25T00:08:03;7.20;99.90
21123;DHT22;10719;48.130;11.630;2023-04-25T00:10:28;7.20;99.90
21123;DHT22;10719;48.130;11.630;2023-04-25T00:12:54;7.20;99.90
21123;DHT22;10719;48.130;11.630;2023-04-25T00:15:20;7.20;99.90
21123;DHT22;10719;48.130;11.630;2023-04-25T00:17:46;7.10;99.90
21123;DHT22;10719;48.130;11.630;2023-04-25T00:20:12;7.10;99.90
21123;DHT22;10719;48.130;11.630;2023-04-25T00:22:38;7.10;99.90
21123;DHT22;10719;48.130;11.630;2023-04-25T00:25:05;7.30;99.90
21123;DHT22;10719;48.130;11.630;2023-04-25T00:27:33;7.30;99.90
21123;DHT22;10719;48.130;11.630;2023-04-25T00:29:58;7.40;99.90
21123;DHT22;10719;48.130;11.630;2023-04-25T00:32:24;7.50;99.90
21123;DHT22;10719;48.130;11.630;2023-04-25T00:34:49;7.50;99.90
21123;DHT22;10719;48.130;11.630;2023-04-25T00:37:15;7.40;99.90
21123;DHT22;10719;48.130;11.630;2023-04-25T00:39:41;7.40;99.90
21123;DHT22;10719;48.130;11.630;2023-04-25T00:42:07;7.50;99.90
21123;DHT22;10719;48.130;11.630;2023-04-25T00:44:34;7.40;99.90
21123;DHT22;10719;48.130;11.630;2023-04-25T00:47:02;7.40;99.90
21123;DHT22;10719;48.130;11.630;2023-04-25T00:49:27;7.40;99.90
21123;DHT22;10719;48.130;11.630;2023-04-25T00:51:54;7.40;99.90
21123;DHT22;10719;48.130;11.630;2023-04-25T00:54:20;7.30;99.90
21123;DHT22;10719;48.130;11.630;2023-04-25T00:56:45;7.30;99.90
21123;DHT22;10719;48.130;11.630;2023-04-25T00:59:11;7.40;99.90
21123;DHT22;10719;48.130;11.630;2023-04-25T01:01:38;7.40;99.90
21123;DHT22;10719;48.130;11.630;2023-04-25T01:04:04;7.30;99.90
21123;DHT22;10719;48.130;11.630;2023-04-25T01:06:30;7.30;99.90
21123;DHT22;10719;48.130;11.630;2023-04-25T01:08:57;7.10;99.90
21123;DHT22;10719;48.130;11.630;2023-04-25T01:11:24;7.10;99.90
21123;DHT22;10719;48.130;11.630;2023-04-25T01:13:50;7.00;99.90
21123;DHT22;10719;48.130;11.630;2023-04-25T01:16:16;7.00;99.90
21123;DHT22;10719;48.130;11.630;2023-04-25T01:18:42;7.00;99.90
21123;DHT22;10719;48.130;11.630;2023-04-25T01:21:09;7.00;99.90
21123;DHT22;10719;48.130;11.630;2023-04-25T01:23:36;7.00;99.90
21123;DHT22;10719;48.130;11.630;2023-04-25T01:26:02;7.20;99.90
21123;DHT22;10719;48.130;11.630;2023-04-25T01:28:29;7.20;99.90
21123;DHT22;10719;48.130;11.630;2023-04-25T01:30:55;7.30;99.90
21123;DHT22;10719;48.130;11.630;2023-04-25T01:33:21;7.20;99.90
21123;DHT22;10719;48.130;11.630;2023-04-25T01:35:47;7.10;99.90
21123;DHT22;10719;48.130;11.630;2023-04-25T01:38:14;7.10;99.90
21123;DHT22;10719;48.130;11.630;2023-04-25T01:40:40;7.10;99.90
21123;DHT22;10719;48.130;11.630;2023-04-25T01:43:07;7.20;99.90
21123;DHT22;10719;48.130;11.630;2023-04-25T01:45:34;7.20;99.90
21123;DHT22;10719;48.130;11.630;2023-04-25T01:48:01;7.30;99.90
21123;DHT22;10719;48.130;11.630;2023-04-25T01:50:27;7.20;99.90
21123;DHT22;10719;48.130;11.630;2023-04-25T01:52:53;7.20;99.90
21123;DHT22;10719;48.130;11.630;2023-04-25T01:55:19;7.20;99.90
21123;DHT22;10719;48.130;11.630;2023-04-25T01:57:45;7.20;99.90
21123;DHT22;10719;48.130;11.630;2023-04-25T02:00:11;7.20;99.90
21123;DHT22;10719;48.130;11.630;2023-04-25T02:02:36;7.10;99.90
21123;DHT22;10719;48.130;11.630;2023-04-25T02:05:02;7.10;99.90
21123;DHT22;10719;48.130;11.630;2023-04-25T02:07:28;7.10;99.90
21123;DHT22;10719;48.130;11.630;2023-04-25T02:09:53;7.10;99.90
21123;DHT22;10719;48.130;11.630;2023-04-25T02:12:19;7.20;99.90
21123;DHT22;10719;48.130;11.630;2023-04-25T02:14:45;7.20;99.90
21123;DHT22;10719;48.130;11.630;2023-04-25T02:17:10;7.10;99.90
21123;DHT22;10719;48.130;11.630;2023-04-25T02:19:37;7.10;99.90
21123;DHT22;10719;48.130;11.630;2023-04-25T02:22:03;7.10;99.90
21123;DHT22;10719;48.130;11.630;2023-04-25T02:24:29;7.00;99.90
21123;DHT22;10719;48.130;11.630;2023-04-25T02:26:54;6.90;99.90
21123;DHT22;10719;48.130;11.630;2023-04-25T02:29:21;6.90;99.90
21123;DHT22;10719;48.130;11.630;2023-04-25T02:31:47;7.00;99.90
21123;DHT22;10719;48.130;11.630;2023-04-25T02:34:12;7.00;99.90
21123;DHT22;10719;48.130;11.630;2023-04-25T02:36:38;7.00;99.90
21123;DHT22;10719;48.130;11.630;2023-04-25T02:39:03;7.00;99.90
21123;DHT22;10719;48.130;11.630;2023-04-25T02:41:29;7.10;99.90
21123;DHT22;10719;48.130;11.630;2023-04-25T02:43:55;7.10;99.90
21123;DHT22;10719;48.130;11.630;2023-04-25T02:46:20;7.10;99.90
21123;DHT22;10719;48.130;11.630;2023-04-25T02:48:46;7.00;99.90
21123;DHT22;10719;48.130;11.630;2023-04-25T02:51:12;6.90;99.90
21123;DHT22;10719;48.130;11.630;2023-04-25T02:53:37;7.00;99.90
21123;DHT22;10719;48.130;11.630;2023-04-25T02:56:03;6.90;99.90
21123;DHT22;10719;48.130;11.630;2023-04-25T02:58:29;6.80;99.90
21123;DHT22;10719;48.130;11.630;2023-04-25T03:00:55;6.80;99.90
21123;DHT22;10719;48.130;11.630;2023-04-25T03:03:20;6.80;99.90
21123;DHT22;10719;48.130;11.630;2023-04-25T03:05:48;6.90;99.90
21123;DHT22;10719;48.130;11.630;2023-04-25T03:08:14;6.80;99.90
21123;DHT22;10719;48.130;11.630;2023-04-25T03:10:39;7.00;99.90
21123;DHT22;10719;48.130;11.630;2023-04-25T03:13:05;7.00;99.90
21123;DHT22;10719;48.130;11.630;2023-04-25T03:15:31;7.10;99.90
21123;DHT22;10719;48.130;11.630;2023-04-25T03:17:56;7.10;99.90
21123;DHT22;10719;48.130;11.630;2023-04-25T03:20:22;7.10;99.90
21123;DHT22;10719;48.130;11.630;2023-04-25T03:22:48;7.20;99.90
21123;DHT22;10719;48.130;11.630;2023-04-25T03:25:13;7.20;99.90
21123;DHT22;10719;48.130;11.630;2023-04-25T03:27:39;7.30;99.90
21123;DHT22;10719;48.130;11.630;2023-04-25T03:30:05;7.20;99.90
21123;DHT22;10719;48.130;11.630;2023-04-25T03:32:31;7.20;99.90
21123;DHT22;10719;48.130;11.630;2023-04-25T03:34:57;7.20;99.90
21123;DHT22;10719;48.130;11.630;2023-04-25T03:37:22;7.20;99.90
21123;DHT22;10719;48.130;11.630;2023-04-25T03:39:48;7.30;99.90
21123;DHT22;10719;48.130;11.630;2023-04-25T03:42:14;7.20;99.90
21123;DHT22;10719;48.130;11.630;2023-04-25T03:44:39;7.20;99.90
21123;DHT22;10719;48.130;11.630;2023-04-25T03:47:05;7.10;99.90
21123;DHT22;10719;48.130;11.630;2023-04-25T03:49:33;7.10;99.90
21123;DHT22;10719;48.130;11.630;2023-04-25T03:51:59;7.10;99.90
21123;DHT22;10719;48.130;11.630;2023-04-25T03:54:25;7.00;99.90
21123;DHT22;10719;48.130;11.630;2023-04-25T03:56:51;6.90;99.90
21123;DHT22;10719;48.130;11.630;2023-04-25T03:59:16;6.90;99.90
21123;DHT22;10719;48.130;11.630;2023-04-25T04:01:42;6.80;99.90
21123;DHT22;10719;48.130;11.630;2023-04-25T04:04:08;6.90;99.90
21123;DHT22;10719;48.130;11.630;2023-04-25T04:06:33;6.80;99.90
21123;DHT22;10719;48.130;11.630;2023-04-25T04:08:59;6.80;99.90
21123;DHT22;10719;48.130;11.630;2023-04-25T04:11:25;6.70;99.90
21123;DHT22;10719;48.130;11.630;2023-04-25T04:13:50;6.80;99.90
21123;DHT22;10719;48.130;11.630;2023-04-25T04:16:16;6.80;99.90
21123;DHT22;10719;48.130;11.630;2023-04-25T04:18:41;6.80;99.90
21123;DHT22;10719;48.130;11.630;2023-04-25T04:21:07;6.70;99.90
21123;DHT22;10719;48.130;11.630;2023-04-25T04:23:33;6.60;99.90
21123;DHT22;10719;48.130;11.630;2023-04-25T04:25:59;6.60;99.90
21123;DHT22;10719;48.130;11.630;2023-04-25T04:28:25;6.50;99.90
21123;DHT22;10719;48.130;11.630;2023-04-25T04:30:51;6.40;99.90
21123;DHT22;10719;48.130;11.630;2023-04-25T04:33:17;6.50;99.90
21123;DHT22;10719;48.130;11.630;2023-04-25T04:35:46;6.50;99.90
21123;DHT22;10719;48.130;11.630;2023-04-25T04:38:12;6.60;99.90
21123;DHT22;10719;48.130;11.630;2023-04-25T04:40:40;6.60;99.90
21123;DHT22;10719;48.130;11.630;2023-04-25T04:43:08;6.60;99.90
21123;DHT22;10719;48.130;11.630;2023-04-25T04:45:35;6.60;99.90
21123;DHT22;10719;48.130;11.630;2023-04-25T04:48:01;6.60;99.90
21123;DHT22;10719;48.130;11.630;2023-04-25T04:50:27;6.60;99.90
21123;DHT22;10719;48.130;11.630;2023-04-25T04:52:53;6.70;99.90
21123;DHT22;10719;48.130;11.630;2023-04-25T04:55:20;6.60;99.90
21123;DHT22;10719;48.130;11.630;2023-04-25T04:57:46;6.60;99.90
21123;DHT22;10719;48.130;11.630;2023-04-25T05:00:12;6.60;99.90
21123;DHT22;10719;48.130;11.630;2023-04-25T05:02:38;6.60;99.90
21123;DHT22;10719;48.130;11.630;2023-04-25T05:05:04;6.60;99.90
21123;DHT22;10719;48.130;11.630;2023-04-25T05:07:30;6.60;99.90
21123;DHT22;10719;48.130;11.630;2023-04-25T05:09:56;6.60;99.90
21123;DHT22;10719;48.130;11.630;2023-04-25T05:12:24;6.70;99.90
21123;DHT22;10719;48.130;11.630;2023-04-25T05:14:50;6.70;99.90
21123;DHT22;10719;48.130;11.630;2023-04-25T05:17:15;6.70;99.90
21123;DHT22;10719;48.130;11.630;2023-04-25T05:19:41;6.70;99.90
21123;DHT22;10719;48.130;11.630;2023-04-25T05:22:07;6.70;99.90
21123;DHT22;10719;48.130;11.630;2023-04-25T05:24:32;6.80;99.90
21123;DHT22;10719;48.130;11.630;2023-04-25T05:26:58;6.80;99.90
21123;DHT22;10719;48.130;11.630;2023-04-25T05:29:24;6.80;99.90
21123;DHT22;10719;48.130;11.630;2023-04-25T05:31:49;6.80;99.90
21123;DHT22;10719;48.130;11.630;2023-04-25T05:34:15;6.90;99.90
21123;DHT22;10719;48.130;11.630;2023-04-25T05:36:42;6.90;99.90
21123;DHT22;10719;48.130;11.630;2023-04-25T05:39:07;7.00;99.90
21123;DHT22;10719;48.130;11.630;2023-04-25T05:41:34;7.00;99.90
21123;DHT22;10719;48.130;11.630;2023-04-25T05:43:59;7.00;99.90
21123;DHT22;10719;48.130;11.630;2023-04-25T05:46:25;7.00;99.90
21123;DHT22;10719;48.130;11.630;2023-04-25T05:48:51;7.10;99.90
21123;DHT22;10719;48.130;11.630;2023-04-25T05:51:16;7.00;99.90
21123;DHT22;10719;48.130;11.630;2023-04-25T05:53:43;6.90;99.90
21123;DHT22;10719;48.130;11.630;2023-04-25T05:56:09;7.10;99.90
21123;DHT22;10719;48.130;11.630;2023-04-25T05:58:35;7.20;99.90
21123;DHT22;10719;48.130;11.630;2023-04-25T06:01:01;7.30;99.90
21123;DHT22;10719;48.130;11.630;2023-04-25T06:03:28;7.30;99.90
21123;DHT22;10719;48.130;11.630;2023-04-25T06:05:53;7.50;99.90
21123;DHT22;10719;48.130;11.630;2023-04-25T06:08:19;7.40;99.90
21123;DHT22;10719;48.130;11.630;2023-04-25T06:10:44;7.10;99.90
21123;DHT22;10719;48.130;11.630;2023-04-25T06:13:10;7.00;99.90
21123;DHT22;10719;48.130;11.630;2023-04-25T06:15:36;6.80;99.90
21123;DHT22;10719;48.130;11.630;2023-04-25T06:18:01;6.50;99.90
21123;DHT22;10719;48.130;11.630;2023-04-25T06:20:27;6.30;99.90
21123;DHT22;10719;48.130;11.630;2023-04-25T06:22:53;5.80;99.90
21123;DHT22;10719;48.130;11.630;2023-04-25T06:25:18;5.70;99.90
21123;DHT22;10719;48.130;11.630;2023-04-25T06:27:44;5.60;99.90
21123;DHT22;10719;48.130;11.630;2023-04-25T06:30:10;5.60;99.90
21123;DHT22;10719;48.130;11.630;2023-04-25T06:32:37;5.60;99.90
21123;DHT22;10719;48.130;11.630;2023-04-25T06:35:03;5.60;99.90
21123;DHT22;10719;48.130;11.630;2023-04-25T06:37:29;5.60;99.90
21123;DHT22;10719;48.130;11.630;2023-04-25T06:39:55;5.70;99.90
21123;DHT22;10719;48.130;11.630;2023-04-25T06:42:21;5.80;99.90
21123;DHT22;10719;48.130;11.630;2023-04-25T06:44:46;5.90;99.90
21123;DHT22;10719;48.130;11.630;2023-04-25T06:47:12;6.10;99.90
21123;DHT22;10719;48.130;11.630;2023-04-25T06:49:37;6.30;99.90
21123;DHT22;10719;48.130;11.630;2023-04-25T06:52:03;6.40;99.90
21123;DHT22;10719;48.130;11.630;2023-04-25T06:54:28;6.20;99.90
21123;DHT22;10719;48.130;11.630;2023-04-25T06:56:55;6.30;99.90
21123;DHT22;10719;48.130;11.630;2023-04-25T06:59:21;6.40;99.90
21123;DHT22;10719;48.130;11.630;2023-04-25T07:01:47;6.60;99.90
21123;DHT22;10719;48.130;11.630;2023-04-25T07:04:12;6.60;99.90
21123;DHT22;10719;48.130;11.630;2023-04-25T07:06:38;6.70;99.90
21123;DHT22;10719;48.130;11.630;2023-04-25T07:09:08;6.80;99.90
21123;DHT22;10719;48.130;11.630;2023-04-25T07:11:35;7.10;99.90
21123;DHT22;10719;48.130;11.630;2023-04-25T07:14:01;7.30;99.90
21123;DHT22;10719;48.130;11.630;2023-04-25T07:16:27;7.30;99.90
21123;DHT22;10719;48.130;11.630;2023-04-25T07:18:52;7.50;99.90
21123;DHT22;10719;48.130;11.630;2023-04-25T07:21:18;7.40;99.90
21123;DHT22;10719;48.130;11.630;2023-04-25T07:23:44;7.40;99.90
21123;DHT22;10719;48.130;11.630;2023-04-25T07:26:09;7.40;99.90
21123;DHT22;10719;48.130;11.630;2023-04-25T07:28:35;7.30;99.90
21123;DHT22;10719;48.130;11.630;2023-04-25T07:31:01;7.40;99.90
21123;DHT22;10719;48.130;11.630;2023-04-25T07:33:27;7.30;99.90
21123;DHT22;10719;48.130;11.630;2023-04-25T07:35:53;7.40;99.90
21123;DHT22;10719;48.130;11.630;2023-04-25T07:38:18;7.40;99.90
21123;DHT22;10719;48.130;11.630;2023-04-25T07:40:44;7.60;99.90
21123;DHT22;10719;48.130;11.630;2023-04-25T07:43:09;7.70;99.90
21123;DHT22;10719;48.130;11.630;2023-04-25T07:45:37;7.70;99.90
21123;DHT22;10719;48.130;11.630;2023-04-25T07:48:03;7.70;99.90
21123;DHT22;10719;48.130;11.630;2023-04-25T07:50:28;7.80;99.90
21123;DHT22;10719;48.130;11.630;2023-04-25T07:52:54;8.00;99.90
21123;DHT22;10719;48.130;11.630;2023-04-25T07:55:19;8.00;99.90
21123;DHT22;10719;48.130;11.630;2023-04-25T07:57:45;7.90;99.90
21123;DHT22;10719;48.130;11.630;2023-04-25T08:00:11;7.90;99.90
21123;DHT22;10719;48.130;11.630;2023-04-25T08:02:38;8.00;99.90
21123;DHT22;10719;48.130;11.630;2023-04-25T08:05:03;8.00;99.90
21123;DHT22;10719;48.130;11.630;2023-04-25T08:07:29;8.20;99.90
21123;DHT22;10719;48.130;11.630;2023-04-25T08:09:55;8.30;99.90
21123;DHT22;10719;48.130;11.630;2023-04-25T08:12:21;8.30;99.90
21123;DHT22;10719;48.130;11.630;2023-04-25T08:14:46;8.50;99.90
21123;DHT22;10719;48.130;11.630;2023-04-25T08:17:12;8.80;99.90
21123;DHT22;10719;48.130;11.630;2023-04-25T08:19:37;9.10;99.90
21123;DHT22;10719;48.130;11.630;2023-04-25T08:22:03;9.50;99.90
21123;DHT22;10719;48.130;11.630;2023-04-25T08:24:29;9.80;99.90
21123;DHT22;10719;48.130;11.630;2023-04-25T08:26:54;9.90;99.90
21123;DHT22;10719;48.130;11.630;2023-04-25T08:29:20;10.10;99.90
21123;DHT22;10719;48.130;11.630;2023-04-25T08:31:46;10.10;99.90
21123;DHT22;10719;48.130;11.630;2023-04-25T08:34:11;9.80;99.90
21123;DHT22;10719;48.130;11.630;2023-04-25T08:36:37;9.60;99.90
21123;DHT22;10719;48.130;11.630;2023-04-25T08:39:03;9.50;99.90
21123;DHT22;10719;48.130;11.630;2023-04-25T08:41:28;9.50;99.90
21123;DHT22;10719;48.130;11.630;2023-04-25T08:43:56;9.50;99.90
21123;DHT22;10719;48.130;11.630;2023-04-25T08:46:23;9.60;99.90
21123;DHT22;10719;48.130;11.630;2023-04-25T08:48:49;9.60;99.90
21123;DHT22;10719;48.130;11.630;2023-04-25T08:51:21;9.80;99.90
21123;DHT22;10719;48.130;11.630;2023-04-25T08:53:51;10.00;99.90
21123;DHT22;10719;48.130;11.630;2023-04-25T08:56:17;10.40;99.90
21123;DHT22;10719;48.130;11.630;2023-04-25T08:58:44;10.20;99.90
21123;DHT22;10719;48.130;11.630;2023-04-25T09:01:11;10.40;99.90
21123;DHT22;10719;48.130;11.630;2023-04-25T09:03:37;10.70;99.90
21123;DHT22;10719;48.130;11.630;2023-04-25T09:06:03;10.90;99.90
21123;DHT22;10719;48.130;11.630;2023-04-25T09:08:29;10.90;99.90
21123;DHT22;10719;48.130;11.630;2023-04-25T09:10:55;11.40;99.90
21123;DHT22;10719;48.130;11.630;2023-04-25T09:13:26;11.40;99.90
21123;DHT22;10719;48.130;11.630;2023-04-25T09:15:57;11.50;99.90
21123;DHT22;10719;48.130;11.630;2023-04-25T09:20:51;11.80;99.90
21123;DHT22;10719;48.130;11.630;2023-04-25T09:23:18;11.90;99.90
21123;DHT22;10719;48.130;11.630;2023-04-25T09:25:50;11.90;99.90
21123;DHT22;10719;48.130;11.630;2023-04-25T09:28:16;12.10;99.90
21123;DHT22;10719;48.130;11.630;2023-04-25T09:30:47;11.90;99.90
21123;DHT22;10719;48.130;11.630;2023-04-25T09:33:13;11.80;99.90
21123;DHT22;10719;48.130;11.630;2023-04-25T09:35:43;11.50;99.90
21123;DHT22;10719;48.130;11.630;2023-04-25T09:38:11;11.30;99.90
21123;DHT22;10719;48.130;11.630;2023-04-25T09:40:45;11.20;99.90
21123;DHT22;10719;48.130;11.630;2023-04-25T09:45:44;11.20;99.90
21123;DHT22;10719;48.130;11.630;2023-04-25T09:48:11;11.00;99.90
21123;DHT22;10719;48.130;11.630;2023-04-25T09:50:38;11.10;99.90
21123;DHT22;10719;48.130;11.630;2023-04-25T09:53:04;11.40;99.90
21123;DHT22;10719;48.130;11.630;2023-04-25T09:55:32;12.00;99.90
21123;DHT22;10719;48.130;11.630;2023-04-25T09:58:04;12.50;99.90
21123;DHT22;10719;48.130;11.630;2023-04-25T10:00:33;12.90;99.90
21123;DHT22;10719;48.130;11.630;2023-04-25T10:03:01;13.00;99.90
21123;DHT22;10719;48.130;11.630;2023-04-25T10:05:30;13.80;99.90
21123;DHT22;10719;48.130;11.630;2023-04-25T10:07:59;14.40;99.90
21123;DHT22;10719;48.130;11.630;2023-04-25T10:10:26;14.10;99.90
21123;DHT22;10719;48.130;11.630;2023-04-25T10:12:53;13.90;99.90
21123;DHT22;10719;48.130;11.630;2023-04-25T10:15:20;13.50;99.90
21123;DHT22;10719;48.130;11.630;2023-04-25T10:17:47;12.90;99.90
21123;DHT22;10719;48.130;11.630;2023-04-25T10:20:13;12.40;99.90
21123;DHT22;10719;48.130;11.630;2023-04-25T10:22:41;12.20;99.90
21123;DHT22;10719;48.130;11.630;2023-04-25T10:25:08;12.10;99.90
21123;DHT22;10719;48.130;11.630;2023-04-25T10:27:34;13.00;99.90
21123;DHT22;10719;48.130;11.630;2023-04-25T10:30:08;14.10;99.90
21123;DHT22;10719;48.130;11.630;2023-04-25T10:32:36;15.00;99.90
21123;DHT22;10719;48.130;11.630;2023-04-25T10:38:03;15.20;99.90
21123;DHT22;10719;48.130;11.630;2023-04-25T10:40:33;14.50;99.90
21123;DHT22;10719;48.130;11.630;2023-04-25T10:43:33;13.70;99.90
21123;DHT22;10719;48.130;11.630;2023-04-25T10:46:02;13.00;99.90
21123;DHT22;10719;48.130;11.630;2023-04-25T10:48:31;12.40;99.90
21123;DHT22;10719;48.130;11.630;2023-04-25T10:51:19;10.90;99.90
21123;DHT22;10719;48.130;11.630;2023-04-25T10:54:06;9.60;99.90
21123;DHT22;10719;48.130;11.630;2023-04-25T10:56:33;8.60;99.90
21123;DHT22;10719;48.130;11.630;2023-04-25T10:59:06;8.30;99.90
21123;DHT22;10719;48.130;11.630;2023-04-25T11:04:02;8.20;99.90
21123;DHT22;10719;48.130;11.630;2023-04-25T11:09:36;8.40;99.90
21123;DHT22;10719;48.130;11.630;2023-04-25T11:12:03;8.70;99.90
21123;DHT22;10719;48.130;11.630;2023-04-25T11:14:30;9.00;99.90
21123;DHT22;10719;48.130;11.630;2023-04-25T11:16:59;9.30;99.90
21123;DHT22;10719;48.130;11.630;2023-04-25T11:19:26;9.70;99.90
21123;DHT22;10719;48.130;11.630;2023-04-25T11:22:01;9.90;99.90
21123;DHT22;10719;48.130;11.630;2023-04-25T11:24:32;10.10;99.90
21123;DHT22;10719;48.130;11.630;2023-04-25T11:26:59;10.00;99.90
21123;DHT22;10719;48.130;11.630;2023-04-25T11:29:28;9.80;99.90
21123;DHT22;10719;48.130;11.630;2023-04-25T11:31:54;9.40;99.90
21123;DHT22;10719;48.130;11.630;2023-04-25T11:34:23;9.40;99.90
21123;DHT22;10719;48.130;11.630;2023-04-25T11:36:50;9.40;99.90
21123;DHT22;10719;48.130;11.630;2023-04-25T11:39:18;9.50;99.90
21123;DHT22;10719;48.130;11.630;2023-04-25T11:41:43;9.40;99.90
21123;DHT22;10719;48.130;11.630;2023-04-25T11:44:09;9.20;99.90
21123;DHT22;10719;48.130;11.630;2023-04-25T11:46:35;9.00;99.90
21123;DHT22;10719;48.130;11.630;2023-04-25T11:49:00;8.90;99.90
21123;DHT22;10719;48.130;11.630;2023-04-25T11:51:26;8.90;99.90
21123;DHT22;10719;48.130;11.630;2023-04-25T11:53:52;8.90;99.90
21123;DHT22;10719;48.130;11.630;2023-04-25T11:56:18;9.20;99.90
21123;DHT22;10719;48.130;11.630;2023-04-25T11:58:57;9.10;99.90
21123;DHT22;10719;48.130;11.630;2023-04-25T12:01:28;8.70;99.90
21123;DHT22;10719;48.130;11.630;2023-04-25T12:03:53;8.80;99.90
21123;DHT22;10719;48.130;11.630;2023-04-25T12:06:19;8.60;99.90
21123;DHT22;10719;48.130;11.630;2023-04-25T12:09:11;8.50;99.90
21123;DHT22;10719;48.130;11.630;2023-04-25T12:11:46;8.50;99.90
21123;DHT22;10719;48.130;11.630;2023-04-25T12:14:20;8.50;99.90
21123;DHT22;10719;48.130;11.630;2023-04-25T12:16:46;8.50;99.90
21123;DHT22;10719;48.130;11.630;2023-04-25T12:19:14;8.40;99.90
21123;DHT22;10719;48.130;11.630;2023-04-25T12:21:40;8.30;99.90
21123;DHT22;10719;48.130;11.630;2023-04-25T12:24:16;8.10;99.90
21123;DHT22;10719;48.130;11.630;2023-04-25T12:26:58;8.20;99.90
21123;DHT22;10719;48.130;11.630;2023-04-25T12:29:26;8.20;99.90
21123;DHT22;10719;48.130;11.630;2023-04-25T12:31:53;8.40;99.90
21123;DHT22;10719;48.130;11.630;2023-04-25T12:34:20;8.60;99.90
21123;DHT22;10719;48.130;11.630;2023-04-25T12:36:47;8.40;99.90
21123;DHT22;10719;48.130;11.630;2023-04-25T12:41:45;8.30;99.90
21123;DHT22;10719;48.130;11.630;2023-04-25T12:44:12;8.60;99.90
21123;DHT22;10719;48.130;11.630;2023-04-25T12:46:38;8.30;99.90
21123;DHT22;10719;48.130;11.630;2023-04-25T12:49:04;8.20;99.90
21123;DHT22;10719;48.130;11.630;2023-04-25T12:51:31;8.50;99.90
21123;DHT22;10719;48.130;11.630;2023-04-25T12:53:58;8.50;99.90
21123;DHT22;10719;48.130;11.630;2023-04-25T12:56:24;8.80;99.90
21123;DHT22;10719;48.130;11.630;2023-04-25T12:58:51;8.70;99.90
21123;DHT22;10719;48.130;11.630;2023-04-25T13:01:17;8.60;99.90
21123;DHT22;10719;48.130;11.630;2023-04-25T13:03:43;8.60;99.90
21123;DHT22;10719;48.130;11.630;2023-04-25T13:06:08;8.40;99.90
21123;DHT22;10719;48.130;11.630;2023-04-25T13:08:34;8.40;99.90
21123;DHT22;10719;48.130;11.630;2023-04-25T13:11:02;8.20;99.90
21123;DHT22;10719;48.130;11.630;2023-04-25T13:13:28;8.20;99.90
21123;DHT22;10719;48.130;11.630;2023-04-25T13:15:53;8.30;99.90
21123;DHT22;10719;48.130;11.630;2023-04-25T13:18:19;8.30;99.90
21123;DHT22;10719;48.130;11.630;2023-04-25T13:20:45;8.10;99.90
21123;DHT22;10719;48.130;11.630;2023-04-25T13:23:11;8.10;99.90
21123;DHT22;10719;48.130;11.630;2023-04-25T13:25:37;7.80;99.90
21123;DHT22;10719;48.130;11.630;2023-04-25T13:28:02;7.60;99.90
21123;DHT22;10719;48.130;11.630;2023-04-25T13:30:28;7.60;99.90
21123;DHT22;10719;48.130;11.630;2023-04-25T13:32:54;7.70;99.90
21123;DHT22;10719;48.130;11.630;2023-04-25T13:35:22;7.70;99.90
21123;DHT22;10719;48.130;11.630;2023-04-25T13:37:48;7.80;99.90
21123;DHT22;10719;48.130;11.630;2023-04-25T13:40:13;7.70;99.90
21123;DHT22;10719;48.130;11.630;2023-04-25T13:42:39;7.50;99.90
21123;DHT22;10719;48.130;11.630;2023-04-25T13:45:06;7.60;99.90
21123;DHT22;10719;48.130;11.630;2023-04-25T13:47:32;7.50;99.90
21123;DHT22;10719;48.130;11.630;2023-04-25T13:49:57;7.30;99.90
21123;DHT22;10719;48.130;11.630;2023-04-25T13:52:23;7.20;99.90
21123;DHT22;10719;48.130;11.630;2023-04-25T13:54:52;6.90;99.90
21123;DHT22;10719;48.130;11.630;2023-04-25T13:57:18;6.90;99.90
21123;DHT22;10719;48.130;11.630;2023-04-25T13:59:45;7.00;99.90
21123;DHT22;10719;48.130;11.630;2023-04-25T14:02:11;6.90;99.90
21123;DHT22;10719;48.130;11.630;2023-04-25T14:04:37;7.00;99.90
21123;DHT22;10719;48.130;11.630;2023-04-25T14:07:03;6.90;99.90
21123;DHT22;10719;48.130;11.630;2023-04-25T14:09:29;7.00;99.90
21123;DHT22;10719;48.130;11.630;2023-04-25T14:11:55;7.00;99.90
21123;DHT22;10719;48.130;11.630;2023-04-25T14:14:21;7.20;99.90
21123;DHT22;10719;48.130;11.630;2023-04-25T14:16:48;7.40;99.90
21123;DHT22;10719;48.130;11.630;2023-04-25T14:19:14;7.60;99.90
21123;DHT22;10719;48.130;11.630;2023-04-25T14:21:40;7.70;99.90
21123;DHT22;10719;48.130;11.630;2023-04-25T14:24:06;7.80;99.90
21123;DHT22;10719;48.130;11.630;2023-04-25T14:26:33;7.50;99.90
21123;DHT22;10719;48.130;11.630;2023-04-25T14:29:00;7.30;99.90
21123;DHT22;10719;48.130;11.630;2023-04-25T14:31:26;7.20;99.90
21123;DHT22;10719;48.130;11.630;2023-04-25T14:33:52;7.20;99.90
21123;DHT22;10719;48.130;11.630;2023-04-25T14:36:18;7.40;99.90
21123;DHT22;10719;48.130;11.630;2023-04-25T14:38:44;7.60;99.90
21123;DHT22;10719;48.130;11.630;2023-04-25T14:41:09;7.50;99.90
21123;DHT22;10719;48.130;11.630;2023-04-25T14:43:36;7.80;99.90
21123;DHT22;10719;48.130;11.630;2023-04-25T14:46:02;8.20;99.90
21123;DHT22;10719;48.130;11.630;2023-04-25T14:48:29;8.70;99.90
21123;DHT22;10719;48.130;11.630;2023-04-25T14:50:54;9.00;99.90
21123;DHT22;10719;48.130;11.630;2023-04-25T14:53:22;8.90;99.90
21123;DHT22;10719;48.130;11.630;2023-04-25T14:55:47;8.80;99.90
21123;DHT22;10719;48.130;11.630;2023-04-25T14:58:14;8.90;99.90
21123;DHT22;10719;48.130;11.630;2023-04-25T15:00:40;9.10;99.90
21123;DHT22;10719;48.130;11.630;2023-04-25T15:03:05;9.10;99.90
21123;DHT22;10719;48.130;11.630;2023-04-25T15:05:33;8.90;99.90
21123;DHT22;10719;48.130;11.630;2023-04-25T15:07:59;8.90;99.90
21123;DHT22;10719;48.130;11.630;2023-04-25T15:10:25;9.10;99.90
21123;DHT22;10719;48.130;11.630;2023-04-25T15:12:51;9.30;99.90
21123;DHT22;10719;48.130;11.630;2023-04-25T15:15:18;9.50;99.90
21123;DHT22;10719;48.130;11.630;2023-04-25T15:17:44;9.30;99.90
21123;DHT22;10719;48.130;11.630;2023-04-25T15:20:12;9.00;99.90
21123;DHT22;10719;48.130;11.630;2023-04-25T15:22:42;8.90;99.90
21123;DHT22;10719;48.130;11.630;2023-04-25T15:25:08;8.80;99.90
21123;DHT22;10719;48.130;11.630;2023-04-25T15:27:35;8.60;99.90
21123;DHT22;10719;48.130;11.630;2023-04-25T15:30:06;8.50;99.90
21123;DHT22;10719;48.130;11.630;2023-04-25T15:32:33;8.60;99.90
21123;DHT22;10719;48.130;11.630;2023-04-25T15:34:59;8.50;99.90
21123;DHT22;10719;48.130;11.630;2023-04-25T15:37:25;8.50;99.90
21123;DHT22;10719;48.130;11.630;2023-04-25T15:42:29;8.40;99.90
21123;DHT22;10719;48.130;11.630;2023-04-25T15:44:55;8.40;99.90